»·PEaware :: N708QM KLAX-KSAN

N708QM :: KLAX-KSAN

FLIGHT INFORMATION

Flight Status: Arrived
Operator: Privately registered:
United States
More flights under this callsign
Pilot: Spencer S. (16608)
Aircraft: BEECH AIRCRAFT DEBONAIR BONANZA
(BE33)
More flights by this aircraft type
Origin: KLAX Los Angeles Intl
United States
Destination: KSAN San Diego Intl-Lindbergh
United States
More flights between these airports :: More routes between these airports
Route: +KLAX MADOW VPSMP SWWAG KSAN
File this flight plan on PilotEdge
Remarks: CAT-11
Altitude:
(Current/Filed)
7,500ft
Speed:
(Current/Filed)
150kts
Departed: 24-Nov-17 04:03 PM
Arrived: 24-Nov-17 04:54 PM
Distance/Time
Traveled:
95nm/0:51
Distance/Time
To Go:
Arrived

Flight Plot

Page will automatically refresh every two minutes.

Flight plan parsing failed; only flown route is shown


Map Options




Map Legend


Flown Route
Filed Route
Departure Airport
Arrival Airport
Navaid (VOR, NDB)
Fix

Horizontal Profiles

Position Reports

Time Latitude Longitude Heading Altitude Ground
Speed
24-Nov-17 15:59 33.932914 -118.399787 78 129ft 0kts
24-Nov-17 16:00 33.932914 -118.399787 78 129ft 0kts
24-Nov-17 16:01 33.932914 -118.399787 78 129ft 0kts
24-Nov-17 16:02 33.932914 -118.399787 78 129ft 0kts
24-Nov-17 16:03 33.932914 -118.399787 78 129ft 0kts
24-Nov-17 16:04 33.932914 -118.399787 78 129ft 0kts
24-Nov-17 16:05 33.932914 -118.399787 78 129ft 0kts
24-Nov-17 16:06 33.932916 -118.399774 78 129ft 1kts
24-Nov-17 16:07 33.934636 -118.397299 82 128ft 21kts
24-Nov-17 16:08 33.935888 -118.385393 75 128ft 44kts
24-Nov-17 16:09 33.936315 -118.382590 330 128ft 3kts
24-Nov-17 16:10 33.936131 -118.395972 266 408ft 85kts
24-Nov-17 16:11 33.934890 -118.427931 265 1475ft 96kts
24-Nov-17 16:12 33.933087 -118.460781 265 2504ft 103kts
24-Nov-17 16:13 33.932346 -118.494082 267 2922ft 138kts
24-Nov-17 16:15 33.919103 -118.600789 219 2980ft 158kts
24-Nov-17 16:16 33.886304 -118.594150 129 3962ft 118kts
24-Nov-17 16:17 33.869439 -118.561297 127 4668ft 113kts
24-Nov-17 16:18 33.850495 -118.529956 130 5216ft 119kts
24-Nov-17 16:19 33.832574 -118.494191 125 5505ft 141kts
24-Nov-17 16:20 33.813060 -118.453569 119 5497ft 158kts
24-Nov-17 16:21 33.792888 -118.405457 117 5497ft 163kts
24-Nov-17 16:22 33.771829 -118.356531 128 5496ft 166kts
24-Nov-17 16:23 33.741739 -118.313838 130 5496ft 168kts
24-Nov-17 16:24 33.713912 -118.272208 128 5496ft 169kts
24-Nov-17 16:25 33.687116 -118.229044 126 5496ft 169kts
24-Nov-17 16:26 33.660592 -118.182933 124 5497ft 169kts
24-Nov-17 16:27 33.635487 -118.135857 122 5496ft 166kts
24-Nov-17 16:28 33.612072 -118.088213 121 5496ft 165kts
24-Nov-17 16:29 33.589916 -118.040176 119 5495ft 165kts
24-Nov-17 16:30 33.569839 -117.992428 117 5496ft 165kts
24-Nov-17 16:31 33.569839 -117.992428 117 5496ft 165kts
24-Nov-17 16:32 33.528284 -117.895444 146 5498ft 164kts
24-Nov-17 16:33 33.492803 -117.861433 126 5497ft 165kts
24-Nov-17 16:34 33.470983 -117.812772 117 5496ft 166kts
24-Nov-17 16:35 33.454310 -117.761155 109 5496ft 167kts
24-Nov-17 16:36 33.436116 -117.710074 117 5495ft 166kts
24-Nov-17 16:37 33.409880 -117.665345 131 5495ft 165kts
24-Nov-17 16:38 33.379851 -117.623505 129 5497ft 167kts
24-Nov-17 16:39 33.350199 -117.580308 128 5497ft 168kts
24-Nov-17 16:40 33.317034 -117.541329 144 5497ft 169kts
24-Nov-17 16:41 33.278876 -117.508211 143 5497ft 169kts
24-Nov-17 16:42 33.241272 -117.474095 142 5497ft 170kts
24-Nov-17 16:43 33.204196 -117.439113 140 5497ft 170kts
24-Nov-17 16:44 33.165417 -117.407555 152 5498ft 168kts
24-Nov-17 16:45 33.124532 -117.381400 152 5496ft 166kts
24-Nov-17 16:46 33.082038 -117.360070 160 5496ft 165kts
24-Nov-17 16:47 33.038351 -117.343581 159 5496ft 165kts
24-Nov-17 16:48 32.997154 -117.321224 152 5185ft 169kts
24-Nov-17 16:49 32.951737 -117.294888 155 4208ft 191kts
24-Nov-17 16:50 32.906364 -117.269349 155 3648ft 170kts
24-Nov-17 16:51 32.865629 -117.246289 156 2694ft 152kts
24-Nov-17 16:52 32.831540 -117.231707 165 1948ft 120kts
24-Nov-17 16:53 32.801030 -117.221258 166 1366ft 105kts
24-Nov-17 16:54 32.775264 -117.207983 155 1384ft 98kts
24-Nov-17 16:55 32.753816 -117.188687 108 1144ft 101kts
24-Nov-17 16:56 32.749073 -117.167840 107 1011ft 93kts
24-Nov-17 16:57 32.729645 -117.164427 237 498ft 86kts
24-Nov-17 16:58 32.732814 -117.186541 287 21ft 50kts
24-Nov-17 16:59 32.734221 -117.188187 324 20ft 8kts
24-Nov-17 17:00 32.732903 -117.182202 107 21ft 29kts
24-Nov-17 17:01 32.732387 -117.177625 122 21ft 0kts
24-Nov-17 17:02 32.732387 -117.177625 122 21ft 0kts
24-Nov-17 17:03 32.732387 -117.177625 122 21ft 0kts
24-Nov-17 17:04 32.732387 -117.177625 122 21ft 0kts
24-Nov-17 17:05 32.732387 -117.177625 121 20ft 0kts

Navigation Log

Ident Type
Flight plan parsing failed, navigation log unavailable